Aviation Digital Data Service (ADDS)

Output produced by METARs form (0941 UTC 24 March 2019)
found at http://www.aviationweather.gov/metar/data/
 
METAR text: ESMS 240920Z 26010KT 220V280 8000 SCT011 05/03 Q1024
Conditions at: ESMS (MALMO/STURUP , SE) observed 0920 UTC 24 March 2019
Temperature: 5.0°C (41°F)
Dewpoint: 3.0°C (37°F) [RH = 87%]
Pressure (altimeter): 30.24 inches Hg (1024.0 mb)
Winds: from the W (260 degrees) at 12 MPH (10 knots; 5.1 m/s)
Visibility: 5 miles ( 8 km)
Ceiling: at least 12,000 feet AGL
Clouds: scattered clouds at 1100 feet AGL
Weather: no significant weather observed at this time

METAR text: ESMS 240850Z 27008KT 9999 SCT012 06/03 Q1025
Conditions at: ESMS (MALMO/STURUP , SE) observed 0850 UTC 24 March 2019
Temperature: 6.0°C (43°F)
Dewpoint: 3.0°C (37°F) [RH = 81%]
Pressure (altimeter): 30.27 inches Hg (1025.0 mb)
Winds: from the W (270 degrees) at 9 MPH (8 knots; 4.1 m/s)
Visibility: 6 or more miles (10+ km)
Ceiling: at least 12,000 feet AGL
Clouds: scattered clouds at 1200 feet AGL
Weather: no significant weather observed at this time

METAR text: ESMS 240820Z 30007KT 9999 FEW010 05/03 Q1025
Conditions at: ESMS (MALMO/STURUP , SE) observed 0820 UTC 24 March 2019
Temperature: 5.0°C (41°F)
Dewpoint: 3.0°C (37°F) [RH = 87%]
Pressure (altimeter): 30.27 inches Hg (1025.0 mb)
Winds: from the WNW (300 degrees) at 8 MPH (7 knots; 3.6 m/s)
Visibility: 6 or more miles (10+ km)
Ceiling: at least 12,000 feet AGL
Clouds: few clouds at 1000 feet AGL
Weather: no significant weather observed at this time

METAR text: ESMS 240750Z 28008KT 9999 FEW008 05/03 Q1025
Conditions at: ESMS (MALMO/STURUP , SE) observed 0750 UTC 24 March 2019
Temperature: 5.0°C (41°F)
Dewpoint: 3.0°C (37°F) [RH = 87%]
Pressure (altimeter): 30.27 inches Hg (1025.0 mb)
Winds: from the W (280 degrees) at 9 MPH (8 knots; 4.1 m/s)
Visibility: 6 or more miles (10+ km)
Ceiling: at least 12,000 feet AGL
Clouds: few clouds at 800 feet AGL
Weather: no significant weather observed at this time

METAR text: ESMS 240720Z 29009KT 9999 SCT013 05/03 Q1025
Conditions at: ESMS (MALMO/STURUP , SE) observed 0720 UTC 24 March 2019
Temperature: 5.0°C (41°F)
Dewpoint: 3.0°C (37°F) [RH = 87%]
Pressure (altimeter): 30.27 inches Hg (1025.0 mb)
Winds: from the WNW (290 degrees) at 10 MPH (9 knots; 4.6 m/s)
Visibility: 6 or more miles (10+ km)
Ceiling: at least 12,000 feet AGL
Clouds: scattered clouds at 1300 feet AGL
Weather: no significant weather observed at this time

METAR text: ESMS 240650Z 28008KT 9999 SCT008 04/03 Q1025
Conditions at: ESMS (MALMO/STURUP , SE) observed 0650 UTC 24 March 2019
Temperature: 4.0°C (39°F)
Dewpoint: 3.0°C (37°F) [RH = 93%]
Pressure (altimeter): 30.27 inches Hg (1025.0 mb)
Winds: from the W (280 degrees) at 9 MPH (8 knots; 4.1 m/s)
Visibility: 6 or more miles (10+ km)
Ceiling: at least 12,000 feet AGL
Clouds: scattered clouds at 800 feet AGL
Weather: no significant weather observed at this time

METAR text: ESMS 240620Z 29009KT CAVOK 04/02 Q1025
Conditions at: ESMS (MALMO/STURUP , SE) observed 0620 UTC 24 March 2019
Temperature: 4.0°C (39°F)
Dewpoint: 2.0°C (36°F) [RH = 87%]
Pressure (altimeter): 30.27 inches Hg (1025.0 mb)
Winds: from the WNW (290 degrees) at 10 MPH (9 knots; 4.6 m/s)
Visibility: 6 or more miles (10+ km)
Ceiling: ceiling and visibility are OK
Clouds: unknown
Weather: no significant weather observed at this time

METAR text: ESMS 240550Z 29009KT CAVOK 04/02 Q1025
Conditions at: ESMS (MALMO/STURUP , SE) observed 0550 UTC 24 March 2019
Temperature: 4.0°C (39°F)
Dewpoint: 2.0°C (36°F) [RH = 87%]
Pressure (altimeter): 30.27 inches Hg (1025.0 mb)
Winds: from the WNW (290 degrees) at 10 MPH (9 knots; 4.6 m/s)
Visibility: 6 or more miles (10+ km)
Ceiling: ceiling and visibility are OK
Clouds: unknown
Weather: no significant weather observed at this time

METAR text: ESMS 240520Z 29008KT CAVOK 04/02 Q1025
Conditions at: ESMS (MALMO/STURUP , SE) observed 0520 UTC 24 March 2019
Temperature: 4.0°C (39°F)
Dewpoint: 2.0°C (36°F) [RH = 87%]
Pressure (altimeter): 30.27 inches Hg (1025.0 mb)
Winds: from the WNW (290 degrees) at 9 MPH (8 knots; 4.1 m/s)
Visibility: 6 or more miles (10+ km)
Ceiling: ceiling and visibility are OK
Clouds: unknown
Weather: no significant weather observed at this time

METAR text: ESMS 240450Z 28009KT CAVOK 03/02 Q1026
Conditions at: ESMS (MALMO/STURUP , SE) observed 0450 UTC 24 March 2019
Temperature: 3.0°C (37°F)
Dewpoint: 2.0°C (36°F) [RH = 93%]
Pressure (altimeter): 30.30 inches Hg (1026.0 mb)
Winds: from the W (280 degrees) at 10 MPH (9 knots; 4.6 m/s)
Visibility: 6 or more miles (10+ km)
Ceiling: ceiling and visibility are OK
Clouds: unknown
Weather: no significant weather observed at this time

METAR text: ESMS 240420Z 28010KT CAVOK 04/02 Q1026
Conditions at: ESMS (MALMO/STURUP , SE) observed 0420 UTC 24 March 2019
Temperature: 4.0°C (39°F)
Dewpoint: 2.0°C (36°F) [RH = 87%]
Pressure (altimeter): 30.30 inches Hg (1026.0 mb)
Winds: from the W (280 degrees) at 12 MPH (10 knots; 5.1 m/s)
Visibility: 6 or more miles (10+ km)
Ceiling: ceiling and visibility are OK
Clouds: unknown
Weather: no significant weather observed at this time

METAR text: ESMS 240350Z 29009KT CAVOK 03/02 Q1026
Conditions at: ESMS (MALMO/STURUP , SE) observed 0350 UTC 24 March 2019
Temperature: 3.0°C (37°F)
Dewpoint: 2.0°C (36°F) [RH = 93%]
Pressure (altimeter): 30.30 inches Hg (1026.0 mb)
Winds: from the WNW (290 degrees) at 10 MPH (9 knots; 4.6 m/s)
Visibility: 6 or more miles (10+ km)
Ceiling: ceiling and visibility are OK
Clouds: unknown
Weather: no significant weather observed at this time

METAR text: ESMS 240320Z 29007KT CAVOK 03/02 Q1026
Conditions at: ESMS (MALMO/STURUP , SE) observed 0320 UTC 24 March 2019
Temperature: 3.0°C (37°F)
Dewpoint: 2.0°C (36°F) [RH = 93%]
Pressure (altimeter): 30.30 inches Hg (1026.0 mb)
Winds: from the WNW (290 degrees) at 8 MPH (7 knots; 3.6 m/s)
Visibility: 6 or more miles (10+ km)
Ceiling: ceiling and visibility are OK
Clouds: unknown
Weather: no significant weather observed at this time

METAR text: ESMS 240250Z 29008KT CAVOK 03/01 Q1026
Conditions at: ESMS (MALMO/STURUP , SE) observed 0250 UTC 24 March 2019
Temperature: 3.0°C (37°F)
Dewpoint: 1.0°C (34°F) [RH = 87%]
Pressure (altimeter): 30.30 inches Hg (1026.0 mb)
Winds: from the WNW (290 degrees) at 9 MPH (8 knots; 4.1 m/s)
Visibility: 6 or more miles (10+ km)
Ceiling: ceiling and visibility are OK
Clouds: unknown
Weather: no significant weather observed at this time

METAR text: ESMS 240220Z 29009KT CAVOK 03/02 Q1026
Conditions at: ESMS (MALMO/STURUP , SE) observed 0220 UTC 24 March 2019
Temperature: 3.0°C (37°F)
Dewpoint: 2.0°C (36°F) [RH = 93%]
Pressure (altimeter): 30.30 inches Hg (1026.0 mb)
Winds: from the WNW (290 degrees) at 10 MPH (9 knots; 4.6 m/s)
Visibility: 6 or more miles (10+ km)
Ceiling: ceiling and visibility are OK
Clouds: unknown
Weather: no significant weather observed at this time

METAR text: ESMS 240150Z 30009KT CAVOK 03/01 Q1026
Conditions at: ESMS (MALMO/STURUP , SE) observed 0150 UTC 24 March 2019
Temperature: 3.0°C (37°F)
Dewpoint: 1.0°C (34°F) [RH = 87%]
Pressure (altimeter): 30.30 inches Hg (1026.0 mb)
Winds: from the WNW (300 degrees) at 10 MPH (9 knots; 4.6 m/s)
Visibility: 6 or more miles (10+ km)
Ceiling: ceiling and visibility are OK
Clouds: unknown
Weather: no significant weather observed at this time

METAR text: ESMS 240120Z 31009KT CAVOK 03/01 Q1026
Conditions at: ESMS (MALMO/STURUP , SE) observed 0120 UTC 24 March 2019
Temperature: 3.0°C (37°F)
Dewpoint: 1.0°C (34°F) [RH = 87%]
Pressure (altimeter): 30.30 inches Hg (1026.0 mb)
Winds: from the NW (310 degrees) at 10 MPH (9 knots; 4.6 m/s)
Visibility: 6 or more miles (10+ km)
Ceiling: ceiling and visibility are OK
Clouds: unknown
Weather: no significant weather observed at this time

METAR text: ESMS 240050Z 30012KT CAVOK 04/01 Q1026
Conditions at: ESMS (MALMO/STURUP , SE) observed 0050 UTC 24 March 2019
Temperature: 4.0°C (39°F)
Dewpoint: 1.0°C (34°F) [RH = 81%]
Pressure (altimeter): 30.30 inches Hg (1026.0 mb)
Winds: from the WNW (300 degrees) at 14 MPH (12 knots; 6.2 m/s)
Visibility: 6 or more miles (10+ km)
Ceiling: ceiling and visibility are OK
Clouds: unknown
Weather: no significant weather observed at this time

METAR text: ESMS 240020Z 30011KT CAVOK 04/01 Q1026
Conditions at: ESMS (MALMO/STURUP , SE) observed 0020 UTC 24 March 2019
Temperature: 4.0°C (39°F)
Dewpoint: 1.0°C (34°F) [RH = 81%]
Pressure (altimeter): 30.30 inches Hg (1026.0 mb)
Winds: from the WNW (300 degrees) at 13 MPH (11 knots; 5.7 m/s)
Visibility: 6 or more miles (10+ km)
Ceiling: ceiling and visibility are OK
Clouds: unknown
Weather: no significant weather observed at this time

METAR text: ESMS 232350Z 30011KT CAVOK 04/01 Q1026
Conditions at: ESMS (MALMO/STURUP , SE) observed 2350 UTC 23 March 2019
Temperature: 4.0°C (39°F)
Dewpoint: 1.0°C (34°F) [RH = 81%]
Pressure (altimeter): 30.30 inches Hg (1026.0 mb)
Winds: from the WNW (300 degrees) at 13 MPH (11 knots; 5.7 m/s)
Visibility: 6 or more miles (10+ km)
Ceiling: ceiling and visibility are OK
Clouds: unknown
Weather: no significant weather observed at this time

METAR text: ESMS 232320Z 29011KT CAVOK 04/01 Q1026
Conditions at: ESMS (MALMO/STURUP , SE) observed 2320 UTC 23 March 2019
Temperature: 4.0°C (39°F)
Dewpoint: 1.0°C (34°F) [RH = 81%]
Pressure (altimeter): 30.30 inches Hg (1026.0 mb)
Winds: from the WNW (290 degrees) at 13 MPH (11 knots; 5.7 m/s)
Visibility: 6 or more miles (10+ km)
Ceiling: ceiling and visibility are OK
Clouds: unknown
Weather: no significant weather observed at this time

METAR text: ESMS 232250Z 29011KT CAVOK 04/00 Q1026
Conditions at: ESMS (MALMO/STURUP , SE) observed 2250 UTC 23 March 2019
Temperature: 4.0°C (39°F)
Dewpoint: 0.0°C (32°F) [RH = 75%]
Pressure (altimeter): 30.30 inches Hg (1026.0 mb)
Winds: from the WNW (290 degrees) at 13 MPH (11 knots; 5.7 m/s)
Visibility: 6 or more miles (10+ km)
Ceiling: ceiling and visibility are OK
Clouds: unknown
Weather: no significant weather observed at this time

METAR text: ESMS 232220Z 30010KT CAVOK 04/00 Q1026
Conditions at: ESMS (MALMO/STURUP , SE) observed 2220 UTC 23 March 2019
Temperature: 4.0°C (39°F)
Dewpoint: 0.0°C (32°F) [RH = 75%]
Pressure (altimeter): 30.30 inches Hg (1026.0 mb)
Winds: from the WNW (300 degrees) at 12 MPH (10 knots; 5.1 m/s)
Visibility: 6 or more miles (10+ km)
Ceiling: ceiling and visibility are OK
Clouds: unknown
Weather: no significant weather observed at this time

METAR text: ESMS 232150Z 30012KT CAVOK 04/00 Q1026
Conditions at: ESMS (MALMO/STURUP , SE) observed 2150 UTC 23 March 2019
Temperature: 4.0°C (39°F)
Dewpoint: 0.0°C (32°F) [RH = 75%]
Pressure (altimeter): 30.30 inches Hg (1026.0 mb)
Winds: from the WNW (300 degrees) at 14 MPH (12 knots; 6.2 m/s)
Visibility: 6 or more miles (10+ km)
Ceiling: ceiling and visibility are OK
Clouds: unknown
Weather: no significant weather observed at this time

METAR text: ESMS 232120Z 29012KT CAVOK 05/M00 Q1026
Conditions at: ESMS (MALMO/STURUP , SE) observed 2120 UTC 23 March 2019
Temperature: 5.0°C (41°F)
Dewpoint: 0.0°C (32°F) [RH = 70%]
Pressure (altimeter): 30.30 inches Hg (1026.0 mb)
Winds: from the WNW (290 degrees) at 14 MPH (12 knots; 6.2 m/s)
Visibility: 6 or more miles (10+ km)
Ceiling: ceiling and visibility are OK
Clouds: unknown
Weather: no significant weather observed at this time

METAR text: ESMS 232050Z 29009KT CAVOK 05/M00 Q1026
Conditions at: ESMS (MALMO/STURUP , SE) observed 2050 UTC 23 March 2019
Temperature: 5.0°C (41°F)
Dewpoint: 0.0°C (32°F) [RH = 70%]
Pressure (altimeter): 30.30 inches Hg (1026.0 mb)
Winds: from the WNW (290 degrees) at 10 MPH (9 knots; 4.6 m/s)
Visibility: 6 or more miles (10+ km)
Ceiling: ceiling and visibility are OK
Clouds: unknown
Weather: no significant weather observed at this time

METAR text: ESMS 232020Z 30009KT CAVOK 05/M00 Q1026
Conditions at: ESMS (MALMO/STURUP , SE) observed 2020 UTC 23 March 2019
Temperature: 5.0°C (41°F)
Dewpoint: 0.0°C (32°F) [RH = 70%]
Pressure (altimeter): 30.30 inches Hg (1026.0 mb)
Winds: from the WNW (300 degrees) at 10 MPH (9 knots; 4.6 m/s)
Visibility: 6 or more miles (10+ km)
Ceiling: ceiling and visibility are OK
Clouds: unknown
Weather: no significant weather observed at this time

METAR text: ESMS 231950Z 29009KT CAVOK 05/00 Q1026
Conditions at: ESMS (MALMO/STURUP , SE) observed 1950 UTC 23 March 2019
Temperature: 5.0°C (41°F)
Dewpoint: 0.0°C (32°F) [RH = 70%]
Pressure (altimeter): 30.30 inches Hg (1026.0 mb)
Winds: from the WNW (290 degrees) at 10 MPH (9 knots; 4.6 m/s)
Visibility: 6 or more miles (10+ km)
Ceiling: ceiling and visibility are OK
Clouds: unknown
Weather: no significant weather observed at this time

METAR text: ESMS 231920Z 30009KT CAVOK 05/01 Q1026
Conditions at: ESMS (MALMO/STURUP , SE) observed 1920 UTC 23 March 2019
Temperature: 5.0°C (41°F)
Dewpoint: 1.0°C (34°F) [RH = 75%]
Pressure (altimeter): 30.30 inches Hg (1026.0 mb)
Winds: from the WNW (300 degrees) at 10 MPH (9 knots; 4.6 m/s)
Visibility: 6 or more miles (10+ km)
Ceiling: ceiling and visibility are OK
Clouds: unknown
Weather: no significant weather observed at this time

METAR text: ESMS 231850Z 29007KT CAVOK 05/01 Q1026
Conditions at: ESMS (MALMO/STURUP , SE) observed 1850 UTC 23 March 2019
Temperature: 5.0°C (41°F)
Dewpoint: 1.0°C (34°F) [RH = 75%]
Pressure (altimeter): 30.30 inches Hg (1026.0 mb)
Winds: from the WNW (290 degrees) at 8 MPH (7 knots; 3.6 m/s)
Visibility: 6 or more miles (10+ km)
Ceiling: ceiling and visibility are OK
Clouds: unknown
Weather: no significant weather observed at this time

METAR text: ESMS 231820Z 29007KT CAVOK 06/02 Q1026
Conditions at: ESMS (MALMO/STURUP , SE) observed 1820 UTC 23 March 2019
Temperature: 6.0°C (43°F)
Dewpoint: 2.0°C (36°F) [RH = 75%]
Pressure (altimeter): 30.30 inches Hg (1026.0 mb)
Winds: from the WNW (290 degrees) at 8 MPH (7 knots; 3.6 m/s)
Visibility: 6 or more miles (10+ km)
Ceiling: ceiling and visibility are OK
Clouds: unknown
Weather: no significant weather observed at this time

METAR text: ESMS 231750Z 29006KT CAVOK 06/01 Q1025
Conditions at: ESMS (MALMO/STURUP , SE) observed 1750 UTC 23 March 2019
Temperature: 6.0°C (43°F)
Dewpoint: 1.0°C (34°F) [RH = 70%]
Pressure (altimeter): 30.27 inches Hg (1025.0 mb)
Winds: from the WNW (290 degrees) at 7 MPH (6 knots; 3.1 m/s)
Visibility: 6 or more miles (10+ km)
Ceiling: ceiling and visibility are OK
Clouds: unknown
Weather: no significant weather observed at this time

METAR text: ESMS 231720Z 30009KT CAVOK 07/02 Q1025
Conditions at: ESMS (MALMO/STURUP , SE) observed 1720 UTC 23 March 2019
Temperature: 7.0°C (45°F)
Dewpoint: 2.0°C (36°F) [RH = 70%]
Pressure (altimeter): 30.27 inches Hg (1025.0 mb)
Winds: from the WNW (300 degrees) at 10 MPH (9 knots; 4.6 m/s)
Visibility: 6 or more miles (10+ km)
Ceiling: ceiling and visibility are OK
Clouds: unknown
Weather: no significant weather observed at this time

METAR text: ESMS 231650Z 30012KT 9999 FEW040 08/02 Q1025
Conditions at: ESMS (MALMO/STURUP , SE) observed 1650 UTC 23 March 2019
Temperature: 8.0°C (46°F)
Dewpoint: 2.0°C (36°F) [RH = 66%]
Pressure (altimeter): 30.27 inches Hg (1025.0 mb)
Winds: from the WNW (300 degrees) at 14 MPH (12 knots; 6.2 m/s)
Visibility: 6 or more miles (10+ km)
Ceiling: at least 12,000 feet AGL
Clouds: few clouds at 4000 feet AGL
Weather: no significant weather observed at this time

METAR text: ESMS 231620Z 30013KT 9999 FEW040 09/02 Q1025
Conditions at: ESMS (MALMO/STURUP , SE) observed 1620 UTC 23 March 2019
Temperature: 9.0°C (48°F)
Dewpoint: 2.0°C (36°F) [RH = 61%]
Pressure (altimeter): 30.27 inches Hg (1025.0 mb)
Winds: from the WNW (300 degrees) at 15 MPH (13 knots; 6.7 m/s)
Visibility: 6 or more miles (10+ km)
Ceiling: at least 12,000 feet AGL
Clouds: few clouds at 4000 feet AGL
Weather: no significant weather observed at this time

METAR text: ESMS 231550Z 30012KT 9999 FEW035 09/03 Q1025
Conditions at: ESMS (MALMO/STURUP , SE) observed 1550 UTC 23 March 2019
Temperature: 9.0°C (48°F)
Dewpoint: 3.0°C (37°F) [RH = 66%]
Pressure (altimeter): 30.27 inches Hg (1025.0 mb)
Winds: from the WNW (300 degrees) at 14 MPH (12 knots; 6.2 m/s)
Visibility: 6 or more miles (10+ km)
Ceiling: at least 12,000 feet AGL
Clouds: few clouds at 3500 feet AGL
Weather: no significant weather observed at this time

METAR text: ESMS 231520Z 30011KT 9999 SCT025 09/03 Q1025
Conditions at: ESMS (MALMO/STURUP , SE) observed 1520 UTC 23 March 2019
Temperature: 9.0°C (48°F)
Dewpoint: 3.0°C (37°F) [RH = 66%]
Pressure (altimeter): 30.27 inches Hg (1025.0 mb)
Winds: from the WNW (300 degrees) at 13 MPH (11 knots; 5.7 m/s)
Visibility: 6 or more miles (10+ km)
Ceiling: at least 12,000 feet AGL
Clouds: scattered clouds at 2500 feet AGL
Weather: no significant weather observed at this time

METAR text: ESMS 231450Z 30013KT 9999 SCT025 09/03 Q1024
Conditions at: ESMS (MALMO/STURUP , SE) observed 1450 UTC 23 March 2019
Temperature: 9.0°C (48°F)
Dewpoint: 3.0°C (37°F) [RH = 66%]
Pressure (altimeter): 30.24 inches Hg (1024.0 mb)
Winds: from the WNW (300 degrees) at 15 MPH (13 knots; 6.7 m/s)
Visibility: 6 or more miles (10+ km)
Ceiling: at least 12,000 feet AGL
Clouds: scattered clouds at 2500 feet AGL
Weather: no significant weather observed at this time

METAR text: ESMS 231420Z 31016KT 9999 SCT025 09/03 Q1024
Conditions at: ESMS (MALMO/STURUP , SE) observed 1420 UTC 23 March 2019
Temperature: 9.0°C (48°F)
Dewpoint: 3.0°C (37°F) [RH = 66%]
Pressure (altimeter): 30.24 inches Hg (1024.0 mb)
Winds: from the NW (310 degrees) at 18 MPH (16 knots; 8.2 m/s)
Visibility: 6 or more miles (10+ km)
Ceiling: at least 12,000 feet AGL
Clouds: scattered clouds at 2500 feet AGL
Weather: no significant weather observed at this time

METAR text: ESMS 231350Z 31014KT 9999 SCT020 09/04 Q1024
Conditions at: ESMS (MALMO/STURUP , SE) observed 1350 UTC 23 March 2019
Temperature: 9.0°C (48°F)
Dewpoint: 4.0°C (39°F) [RH = 71%]
Pressure (altimeter): 30.24 inches Hg (1024.0 mb)
Winds: from the NW (310 degrees) at 16 MPH (14 knots; 7.2 m/s)
Visibility: 6 or more miles (10+ km)
Ceiling: at least 12,000 feet AGL
Clouds: scattered clouds at 2000 feet AGL
Weather: no significant weather observed at this time

METAR text: ESMS 231320Z 29014KT 9999 BKN022 BKN029 10/05 Q1024
Conditions at: ESMS (MALMO/STURUP , SE) observed 1320 UTC 23 March 2019
Temperature: 10.0°C (50°F)
Dewpoint: 5.0°C (41°F) [RH = 71%]
Pressure (altimeter): 30.24 inches Hg (1024.0 mb)
Winds: from the WNW (290 degrees) at 16 MPH (14 knots; 7.2 m/s)
Visibility: 6 or more miles (10+ km)
Ceiling: 2200 feet AGL
Clouds: broken clouds at 2200 feet AGL
broken clouds at 2900 feet AGL
Weather: no significant weather observed at this time

METAR text: ESMS 231250Z 29015KT 9999 BKN022 BKN027 09/05 Q1024
Conditions at: ESMS (MALMO/STURUP , SE) observed 1250 UTC 23 March 2019
Temperature: 9.0°C (48°F)
Dewpoint: 5.0°C (41°F) [RH = 76%]
Pressure (altimeter): 30.24 inches Hg (1024.0 mb)
Winds: from the WNW (290 degrees) at 17 MPH (15 knots; 7.7 m/s)
Visibility: 6 or more miles (10+ km)
Ceiling: 2200 feet AGL
Clouds: broken clouds at 2200 feet AGL
broken clouds at 2700 feet AGL
Weather: no significant weather observed at this time

METAR text: ESMS 231220Z 30014KT 9999 BKN021 10/05 Q1024
Conditions at: ESMS (MALMO/STURUP , SE) observed 1220 UTC 23 March 2019
Temperature: 10.0°C (50°F)
Dewpoint: 5.0°C (41°F) [RH = 71%]
Pressure (altimeter): 30.24 inches Hg (1024.0 mb)
Winds: from the WNW (300 degrees) at 16 MPH (14 knots; 7.2 m/s)
Visibility: 6 or more miles (10+ km)
Ceiling: 2100 feet AGL
Clouds: broken clouds at 2100 feet AGL
Weather: no significant weather observed at this time

METAR text: ESMS 231150Z 29014KT 9999 BKN014 09/05 Q1024
Conditions at: ESMS (MALMO/STURUP , SE) observed 1150 UTC 23 March 2019
Temperature: 9.0°C (48°F)
Dewpoint: 5.0°C (41°F) [RH = 76%]
Pressure (altimeter): 30.24 inches Hg (1024.0 mb)
Winds: from the WNW (290 degrees) at 16 MPH (14 knots; 7.2 m/s)
Visibility: 6 or more miles (10+ km)
Ceiling: 1400 feet AGL
Clouds: broken clouds at 1400 feet AGL
Weather: no significant weather observed at this time

METAR text: ESMS 231120Z 29012KT 260V320 8000 FEW010 BKN012 BKN023 10/06 Q1023
Conditions at: ESMS (MALMO/STURUP , SE) observed 1120 UTC 23 March 2019
Temperature: 10.0°C (50°F)
Dewpoint: 6.0°C (43°F) [RH = 76%]
Pressure (altimeter): 30.21 inches Hg (1023.0 mb)
Winds: from the WNW (290 degrees) at 14 MPH (12 knots; 6.2 m/s)
Visibility: 5 miles ( 8 km)
Ceiling: 1200 feet AGL
Clouds: few clouds at 1000 feet AGL
broken clouds at 1200 feet AGL
broken clouds at 2300 feet AGL
Weather: no significant weather observed at this time

METAR text: ESMS 231050Z 28011KT 6000 FEW007 BKN011 09/06 Q1023
Conditions at: ESMS (MALMO/STURUP , SE) observed 1050 UTC 23 March 2019
Temperature: 9.0°C (48°F)
Dewpoint: 6.0°C (43°F) [RH = 81%]
Pressure (altimeter): 30.21 inches Hg (1023.0 mb)
Winds: from the W (280 degrees) at 13 MPH (11 knots; 5.7 m/s)
Visibility: 4 miles ( 6 km)
Ceiling: 1100 feet AGL
Clouds: few clouds at 700 feet AGL
broken clouds at 1100 feet AGL
Weather: no significant weather observed at this time

METAR text: ESMS 231020Z 28011KT 4500 BR OVC007 08/06 Q1023
Conditions at: ESMS (MALMO/STURUP , SE) observed 1020 UTC 23 March 2019
Temperature: 8.0°C (46°F)
Dewpoint: 6.0°C (43°F) [RH = 87%]
Pressure (altimeter): 30.21 inches Hg (1023.0 mb)
Winds: from the W (280 degrees) at 13 MPH (11 knots; 5.7 m/s)
Visibility: 2.80 miles (4.51 km)
Ceiling: 700 feet AGL
Clouds: overcast cloud deck at 700 feet AGL
Weather: BR  (mist)

METAR text: ESMS 230950Z 28011KT 4700 BR OVC007 08/06 Q1023
Conditions at: ESMS (MALMO/STURUP , SE) observed 0950 UTC 23 March 2019
Temperature: 8.0°C (46°F)
Dewpoint: 6.0°C (43°F) [RH = 87%]
Pressure (altimeter): 30.21 inches Hg (1023.0 mb)
Winds: from the W (280 degrees) at 13 MPH (11 knots; 5.7 m/s)
Visibility: 2.92 miles (4.70 km)
Ceiling: 700 feet AGL
Clouds: overcast cloud deck at 700 feet AGL
Weather: BR  (mist)

METAR text: ESMS 230920Z 28012KT 4700 BR OVC008 08/06 Q1023
Conditions at: ESMS (MALMO/STURUP , SE) observed 0920 UTC 23 March 2019
Temperature: 8.0°C (46°F)
Dewpoint: 6.0°C (43°F) [RH = 87%]
Pressure (altimeter): 30.21 inches Hg (1023.0 mb)
Winds: from the W (280 degrees) at 14 MPH (12 knots; 6.2 m/s)
Visibility: 2.92 miles (4.70 km)
Ceiling: 800 feet AGL
Clouds: overcast cloud deck at 800 feet AGL
Weather: BR  (mist)

METAR text: ESMS 230850Z 28010KT 4500 BR OVC008 08/06 Q1023
Conditions at: ESMS (MALMO/STURUP , SE) observed 0850 UTC 23 March 2019
Temperature: 8.0°C (46°F)
Dewpoint: 6.0°C (43°F) [RH = 87%]
Pressure (altimeter): 30.21 inches Hg (1023.0 mb)
Winds: from the W (280 degrees) at 12 MPH (10 knots; 5.1 m/s)
Visibility: 2.80 miles (4.51 km)
Ceiling: 800 feet AGL
Clouds: overcast cloud deck at 800 feet AGL
Weather: BR  (mist)

METAR text: ESMS 230820Z 27008KT 3400 BR BKN008 OVC029 07/06 Q1023
Conditions at: ESMS (MALMO/STURUP , SE) observed 0820 UTC 23 March 2019
Temperature: 7.0°C (45°F)
Dewpoint: 6.0°C (43°F) [RH = 93%]
Pressure (altimeter): 30.21 inches Hg (1023.0 mb)
Winds: from the W (270 degrees) at 9 MPH (8 knots; 4.1 m/s)
Visibility: 2.11 miles (3.40 km)
Ceiling: 800 feet AGL
Clouds: broken clouds at 800 feet AGL
overcast cloud deck at 2900 feet AGL
Weather: BR  (mist)

METAR text: ESMS 230750Z 28011KT 4000 BR OVC008 08/07 Q1023
Conditions at: ESMS (MALMO/STURUP , SE) observed 0750 UTC 23 March 2019
Temperature: 8.0°C (46°F)
Dewpoint: 7.0°C (45°F) [RH = 93%]
Pressure (altimeter): 30.21 inches Hg (1023.0 mb)
Winds: from the W (280 degrees) at 13 MPH (11 knots; 5.7 m/s)
Visibility: 2.49 miles (4.01 km)
Ceiling: 800 feet AGL
Clouds: overcast cloud deck at 800 feet AGL
Weather: BR  (mist)

METAR text: ESMS 230720Z 27008KT 3200 BR BKN006 OVC008 08/07 Q1022
Conditions at: ESMS (MALMO/STURUP , SE) observed 0720 UTC 23 March 2019
Temperature: 8.0°C (46°F)
Dewpoint: 7.0°C (45°F) [RH = 93%]
Pressure (altimeter): 30.18 inches Hg (1022.0 mb)
Winds: from the W (270 degrees) at 9 MPH (8 knots; 4.1 m/s)
Visibility: 1.99 miles (3.20 km)
Ceiling: 600 feet AGL
Clouds: broken clouds at 600 feet AGL
overcast cloud deck at 800 feet AGL
Weather: BR  (mist)

METAR text: ESMS 230650Z 27008KT 2300 BR BKN006 OVC008 07/07 Q1022
Conditions at: ESMS (MALMO/STURUP , SE) observed 0650 UTC 23 March 2019
Temperature: 7.0°C (45°F)
Dewpoint: 7.0°C (45°F) [RH = 100%]
Pressure (altimeter): 30.18 inches Hg (1022.0 mb)
Winds: from the W (270 degrees) at 9 MPH (8 knots; 4.1 m/s)
Visibility: 1.43 miles (2.30 km)
Ceiling: 600 feet AGL
Clouds: broken clouds at 600 feet AGL
overcast cloud deck at 800 feet AGL
Weather: BR  (mist)

METAR text: ESMS 230620Z 27008KT 1900 BR BKN004 OVC006 07/07 Q1022
Conditions at: ESMS (MALMO/STURUP , SE) observed 0620 UTC 23 March 2019
Temperature: 7.0°C (45°F)
Dewpoint: 7.0°C (45°F) [RH = 100%]
Pressure (altimeter): 30.18 inches Hg (1022.0 mb)
Winds: from the W (270 degrees) at 9 MPH (8 knots; 4.1 m/s)
Visibility: 1.18 miles (1.90 km)
Ceiling: 400 feet AGL
Clouds: broken clouds at 400 feet AGL
overcast cloud deck at 600 feet AGL
Weather: BR  (mist)

METAR text: ESMS 230550Z 26006KT 0200 R17/1300U R35/0800N FG OVC002 06/06 Q1022
Conditions at: ESMS (MALMO/STURUP , SE) observed 0550 UTC 23 March 2019
Temperature: 6.0°C (43°F)
Dewpoint: 6.0°C (43°F) [RH = 100%]
Pressure (altimeter): 30.18 inches Hg (1022.0 mb)
Winds: from the W (260 degrees) at 7 MPH (6 knots; 3.1 m/s)
Visibility: 0.12 miles (0.19 km)
Ceiling: 200 feet AGL
Clouds: overcast cloud deck at 200 feet AGL
Weather: FG  (fog)

METAR text: ESMS 230520Z 21006KT 0150 R17/0450N R35/0450N FG VV002 06/06 Q1022
Conditions at: ESMS (MALMO/STURUP , SE) observed 0520 UTC 23 March 2019
Temperature: 6.0°C (43°F)
Dewpoint: 6.0°C (43°F) [RH = 100%]
Pressure (altimeter): 30.18 inches Hg (1022.0 mb)
Winds: from the SSW (210 degrees) at 7 MPH (6 knots; 3.1 m/s)
Visibility: 0.09 miles (0.14 km)
Ceiling: indefinite ceiling with vertical visibility of 200 feet AGL
Clouds: obscured sky
Weather: FG  (fog)

METAR text: ESMS 230450Z 22006KT 0150 R17/0700N R35/0600N FG VV002 06/06 Q1022
Conditions at: ESMS (MALMO/STURUP , SE) observed 0450 UTC 23 March 2019
Temperature: 6.0°C (43°F)
Dewpoint: 6.0°C (43°F) [RH = 100%]
Pressure (altimeter): 30.18 inches Hg (1022.0 mb)
Winds: from the SW (220 degrees) at 7 MPH (6 knots; 3.1 m/s)
Visibility: 0.09 miles (0.14 km)
Ceiling: indefinite ceiling with vertical visibility of 200 feet AGL
Clouds: obscured sky
Weather: FG  (fog)

METAR text: ESMS 230420Z 22009KT 0200 R17/0900N R35/0800N FG VV002 06/06 Q1022
Conditions at: ESMS (MALMO/STURUP , SE) observed 0420 UTC 23 March 2019
Temperature: 6.0°C (43°F)
Dewpoint: 6.0°C (43°F) [RH = 100%]
Pressure (altimeter): 30.18 inches Hg (1022.0 mb)
Winds: from the SW (220 degrees) at 10 MPH (9 knots; 4.6 m/s)
Visibility: 0.12 miles (0.19 km)
Ceiling: indefinite ceiling with vertical visibility of 200 feet AGL
Clouds: obscured sky
Weather: FG  (fog)

METAR text: ESMS 230350Z 22010KT 0150 R17/0900N R35/0650N FG OVC002 06/06 Q1023
Conditions at: ESMS (MALMO/STURUP , SE) observed 0350 UTC 23 March 2019
Temperature: 6.0°C (43°F)
Dewpoint: 6.0°C (43°F) [RH = 100%]
Pressure (altimeter): 30.21 inches Hg (1023.0 mb)
Winds: from the SW (220 degrees) at 12 MPH (10 knots; 5.1 m/s)
Visibility: 0.09 miles (0.14 km)
Ceiling: 200 feet AGL
Clouds: overcast cloud deck at 200 feet AGL
Weather: FG  (fog)

METAR text: ESMS 230320Z 21012KT 0150 R17/0800N R35/0700N FG OVC002 06/06 Q1023
Conditions at: ESMS (MALMO/STURUP , SE) observed 0320 UTC 23 March 2019
Temperature: 6.0°C (43°F)
Dewpoint: 6.0°C (43°F) [RH = 100%]
Pressure (altimeter): 30.21 inches Hg (1023.0 mb)
Winds: from the SSW (210 degrees) at 14 MPH (12 knots; 6.2 m/s)
Visibility: 0.09 miles (0.14 km)
Ceiling: 200 feet AGL
Clouds: overcast cloud deck at 200 feet AGL
Weather: FG  (fog)

METAR text: ESMS 230250Z 20010KT 0300 R17/P1500N R35/1000U FG OVC002 07/07 Q1023
Conditions at: ESMS (MALMO/STURUP , SE) observed 0250 UTC 23 March 2019
Temperature: 7.0°C (45°F)
Dewpoint: 7.0°C (45°F) [RH = 100%]
Pressure (altimeter): 30.21 inches Hg (1023.0 mb)
Winds: from the SSW (200 degrees) at 12 MPH (10 knots; 5.1 m/s)
Visibility: 0.19 miles (0.31 km)
Ceiling: 200 feet AGL
Clouds: overcast cloud deck at 200 feet AGL
Weather: FG  (fog)

METAR text: ESMS 230220Z 19011KT 0300 R17/P1500N R35/1000D FG OVC002 07/06 Q1023
Conditions at: ESMS (MALMO/STURUP , SE) observed 0220 UTC 23 March 2019
Temperature: 7.0°C (45°F)
Dewpoint: 6.0°C (43°F) [RH = 93%]
Pressure (altimeter): 30.21 inches Hg (1023.0 mb)
Winds: from the S (190 degrees) at 13 MPH (11 knots; 5.7 m/s)
Visibility: 0.19 miles (0.31 km)
Ceiling: 200 feet AGL
Clouds: overcast cloud deck at 200 feet AGL
Weather: FG  (fog)

METAR text: ESMS 230150Z 20010KT 1000 R17/P1500N R35/P1500N OVC002 07/07 Q1024
Conditions at: ESMS (MALMO/STURUP , SE) observed 0150 UTC 23 March 2019
Temperature: 7.0°C (45°F)
Dewpoint: 7.0°C (45°F) [RH = 100%]
Pressure (altimeter): 30.24 inches Hg (1024.0 mb)
Winds: from the SSW (200 degrees) at 12 MPH (10 knots; 5.1 m/s)
Visibility: 0.62 miles (1.00 km)
Ceiling: 200 feet AGL
Clouds: overcast cloud deck at 200 feet AGL
Weather: no significant weather observed at this time

METAR text: ESMS 230120Z 19009KT 1700 OVC002 07/07 Q1024
Conditions at: ESMS (MALMO/STURUP , SE) observed 0120 UTC 23 March 2019
Temperature: 7.0°C (45°F)
Dewpoint: 7.0°C (45°F) [RH = 100%]
Pressure (altimeter): 30.24 inches Hg (1024.0 mb)
Winds: from the S (190 degrees) at 10 MPH (9 knots; 4.6 m/s)
Visibility: 1.06 miles (1.71 km)
Ceiling: 200 feet AGL
Clouds: overcast cloud deck at 200 feet AGL
Weather: no significant weather observed at this time

METAR text: ESMS 230050Z 20010KT 0250 R17/1300D R35/0900D FG OVC002 07/07 Q1024
Conditions at: ESMS (MALMO/STURUP , SE) observed 0050 UTC 23 March 2019
Temperature: 7.0°C (45°F)
Dewpoint: 7.0°C (45°F) [RH = 100%]
Pressure (altimeter): 30.24 inches Hg (1024.0 mb)
Winds: from the SSW (200 degrees) at 12 MPH (10 knots; 5.1 m/s)
Visibility: 0.16 miles (0.26 km)
Ceiling: 200 feet AGL
Clouds: overcast cloud deck at 200 feet AGL
Weather: FG  (fog)

METAR text: ESMS 230020Z 21007KT 2400 BR OVC002 07/07 Q1025
Conditions at: ESMS (MALMO/STURUP , SE) observed 0020 UTC 23 March 2019
Temperature: 7.0°C (45°F)
Dewpoint: 7.0°C (45°F) [RH = 100%]
Pressure (altimeter): 30.27 inches Hg (1025.0 mb)
Winds: from the SSW (210 degrees) at 8 MPH (7 knots; 3.6 m/s)
Visibility: 1.49 miles (2.40 km)
Ceiling: 200 feet AGL
Clouds: overcast cloud deck at 200 feet AGL
Weather: BR  (mist)

METAR text: ESMS 222350Z 20008KT 3400 BR OVC003 07/07 Q1025
Conditions at: ESMS (MALMO/STURUP , SE) observed 2350 UTC 22 March 2019
Temperature: 7.0°C (45°F)
Dewpoint: 7.0°C (45°F) [RH = 100%]
Pressure (altimeter): 30.27 inches Hg (1025.0 mb)
Winds: from the SSW (200 degrees) at 9 MPH (8 knots; 4.1 m/s)
Visibility: 2.11 miles (3.40 km)
Ceiling: 300 feet AGL
Clouds: overcast cloud deck at 300 feet AGL
Weather: BR  (mist)

METAR text: ESMS 222320Z 19008KT 4000 BR OVC004 07/07 Q1025
Conditions at: ESMS (MALMO/STURUP , SE) observed 2320 UTC 22 March 2019
Temperature: 7.0°C (45°F)
Dewpoint: 7.0°C (45°F) [RH = 100%]
Pressure (altimeter): 30.27 inches Hg (1025.0 mb)
Winds: from the S (190 degrees) at 9 MPH (8 knots; 4.1 m/s)
Visibility: 2.49 miles (4.01 km)
Ceiling: 400 feet AGL
Clouds: overcast cloud deck at 400 feet AGL
Weather: BR  (mist)

METAR text: ESMS 222250Z 19009KT 3600 BR OVC003 07/07 Q1026
Conditions at: ESMS (MALMO/STURUP , SE) observed 2250 UTC 22 March 2019
Temperature: 7.0°C (45°F)
Dewpoint: 7.0°C (45°F) [RH = 100%]
Pressure (altimeter): 30.30 inches Hg (1026.0 mb)
Winds: from the S (190 degrees) at 10 MPH (9 knots; 4.6 m/s)
Visibility: 2.24 miles (3.60 km)
Ceiling: 300 feet AGL
Clouds: overcast cloud deck at 300 feet AGL
Weather: BR  (mist)

METAR text: ESMS 222220Z 18009KT 3300 BR OVC003 07/07 Q1026
Conditions at: ESMS (MALMO/STURUP , SE) observed 2220 UTC 22 March 2019
Temperature: 7.0°C (45°F)
Dewpoint: 7.0°C (45°F) [RH = 100%]
Pressure (altimeter): 30.30 inches Hg (1026.0 mb)
Winds: from the S (180 degrees) at 10 MPH (9 knots; 4.6 m/s)
Visibility: 2.05 miles (3.30 km)
Ceiling: 300 feet AGL
Clouds: overcast cloud deck at 300 feet AGL
Weather: BR  (mist)

METAR text: ESMS 222150Z 18010KT 2700 BR OVC002 07/07 Q1027
Conditions at: ESMS (MALMO/STURUP , SE) observed 2150 UTC 22 March 2019
Temperature: 7.0°C (45°F)
Dewpoint: 7.0°C (45°F) [RH = 100%]
Pressure (altimeter): 30.32 inches Hg (1027.0 mb)
Winds: from the S (180 degrees) at 12 MPH (10 knots; 5.1 m/s)
Visibility: 1.68 miles (2.70 km)
Ceiling: 200 feet AGL
Clouds: overcast cloud deck at 200 feet AGL
Weather: BR  (mist)

Forecast for: ESMS (MALMO/STURUP , SE)
Text: TAF ESMS 240454Z 2406/2506 29010KT 9999 SCT018
Forecast period: 0600 UTC 24 March 2019 to 0000 UTC 25 March 2019
Forecast type: FROM: standard forecast or significant change
Winds: from the WNW (290 degrees) at 12 MPH (10 knots; 5.1 m/s)
Visibility: 6 or more miles 10+ km)
Ceiling: at least 12,000 feet AGL
Clouds: scattered clouds at 1800 feet AGL
Weather: no significant weather forecast for this period
Text: BECMG 2500/2502 4000 RA BKN008 SCT020CB
Forecast period: 0000 to 0200 UTC 25 March 2019
Forecast type: BECOMING: Conditions expected to become as follows by 0200 UTC 25 March 2019
Winds: from the WNW (290 degrees) at 12 MPH (10 knots; 5.1 m/s)
Visibility: 2.49 miles (4.01 km)
Ceiling: 800 feet AGL
Clouds: broken clouds at 800 feet AGL
scattered clouds at 2000 feet AGL
Weather: RA  (moderate rain)
Text: BECMG 2502/2504 9999 NSW SCT020
Forecast period: 0200 to 0600 UTC 25 March 2019
Forecast type: BECOMING: Conditions expected to become as follows by 0400 UTC 25 March 2019
Winds: from the WNW (290 degrees) at 12 MPH (10 knots; 5.1 m/s)
Visibility: 6 or more miles 10+ km)
Ceiling: at least 12,000 feet AGL
Clouds: scattered clouds at 2000 feet AGL
Weather: NSW  (no significant weather)